createdAt,value
2023-05-17T00:00:35.759Z,644.00
2023-05-17T00:01:35.739Z,643.00
2023-05-17T00:02:35.777Z,645.00
2023-05-17T00:03:35.705Z,644.00
2023-05-17T00:04:35.732Z,646.00
2023-05-17T00:05:35.709Z,647.00
2023-05-17T00:06:35.738Z,648.00
2023-05-17T00:07:35.754Z,650.00
2023-05-17T00:08:35.757Z,648.00
2023-05-17T00:09:35.776Z,646.00
2023-05-17T00:10:35.902Z,645.00
2023-05-17T00:11:35.819Z,646.00
2023-05-17T00:12:35.840Z,646.00
2023-05-17T00:13:35.900Z,646.00
2023-05-17T00:14:35.875Z,646.00
2023-05-17T00:15:35.914Z,646.00
2023-05-17T00:16:35.920Z,645.00
2023-05-17T00:17:36.047Z,645.00
2023-05-17T00:18:36.113Z,645.00
2023-05-17T00:19:36.024Z,644.00
2023-05-17T00:20:36.014Z,643.00
2023-05-17T00:21:36.024Z,643.00
2023-05-17T00:22:36.077Z,641.00
2023-05-17T00:23:36.070Z,642.00
2023-05-17T00:24:36.101Z,642.00
2023-05-17T00:25:36.114Z,642.00
2023-05-17T00:26:36.220Z,638.00
2023-05-17T00:27:36.156Z,639.00
2023-05-17T00:28:36.200Z,636.00
2023-05-17T00:29:36.191Z,634.00
2023-05-17T00:30:36.225Z,633.00
2023-05-17T00:31:36.235Z,634.00
2023-05-17T00:32:36.307Z,634.00
2023-05-17T00:33:36.284Z,634.00
2023-05-17T00:34:36.315Z,631.00
2023-05-17T00:35:36.338Z,626.00
2023-05-17T00:36:36.356Z,629.00
2023-05-17T00:37:36.391Z,628.00
2023-05-17T00:38:36.402Z,626.00
2023-05-17T00:39:36.440Z,629.00
2023-05-17T00:40:36.458Z,630.00
2023-05-17T00:41:36.493Z,630.00
2023-05-17T00:42:36.728Z,629.00
2023-05-17T00:43:36.566Z,632.00
2023-05-17T00:44:36.555Z,634.00
2023-05-17T00:45:36.602Z,635.00
2023-05-17T00:46:36.600Z,637.00
2023-05-17T00:47:36.836Z,638.00
2023-05-17T00:48:36.761Z,636.00
2023-05-17T00:49:36.655Z,634.00
2023-05-17T00:50:36.696Z,631.00
2023-05-17T00:51:36.703Z,629.00
2023-05-17T00:52:36.738Z,629.00
2023-05-17T00:53:36.762Z,627.00
2023-05-17T00:54:36.789Z,628.00
2023-05-17T00:55:36.809Z,626.00
2023-05-17T00:56:36.837Z,626.00
2023-05-17T00:57:36.855Z,627.00
2023-05-17T00:58:37.087Z,627.00
2023-05-17T00:59:36.910Z,628.00
2023-05-17T01:00:36.950Z,627.00
2023-05-17T01:01:36.955Z,627.00
2023-05-17T01:02:37.148Z,625.00
2023-05-17T01:03:37.127Z,625.00
2023-05-17T01:04:37.054Z,626.00
2023-05-17T01:05:37.038Z,625.00
2023-05-17T01:06:37.057Z,625.00
2023-05-17T01:07:37.074Z,625.00
2023-05-17T01:08:37.106Z,625.00
2023-05-17T01:09:37.124Z,628.00
2023-05-17T01:10:37.137Z,627.00
2023-05-17T01:11:37.173Z,626.00
2023-05-17T01:12:37.250Z,624.00
2023-05-17T01:13:37.221Z,623.00
2023-05-17T01:14:37.311Z,622.00
2023-05-17T01:15:37.277Z,618.00
2023-05-17T01:16:37.294Z,618.00
2023-05-17T01:17:37.376Z,619.00
2023-05-17T01:18:37.471Z,617.00
2023-05-17T01:19:37.450Z,619.00
2023-05-17T01:20:37.781Z,620.00
2023-05-17T01:21:37.444Z,619.00
2023-05-17T01:22:37.443Z,618.00
2023-05-17T01:23:37.491Z,619.00
2023-05-17T01:24:37.491Z,618.00
2023-05-17T01:25:37.544Z,618.00
2023-05-17T01:26:37.561Z,622.00
2023-05-17T01:27:37.620Z,620.00
2023-05-17T01:28:37.624Z,620.00
2023-05-17T01:29:37.688Z,621.00
2023-05-17T01:30:37.756Z,618.00
2023-05-17T01:31:37.738Z,617.00
2023-05-17T01:32:37.798Z,616.00
2023-05-17T01:33:37.993Z,615.00
2023-05-17T01:34:37.811Z,613.00
2023-05-17T01:35:37.855Z,614.00
2023-05-17T01:36:37.859Z,614.00
2023-05-17T01:37:37.913Z,614.00
2023-05-17T01:38:37.935Z,614.00
2023-05-17T01:39:38.019Z,615.00
2023-05-17T01:40:37.987Z,616.00
2023-05-17T01:41:38.034Z,616.00
2023-05-17T01:42:38.066Z,613.00
2023-05-17T01:43:38.106Z,613.00
2023-05-17T01:44:38.115Z,612.00
2023-05-17T01:45:38.143Z,612.00
2023-05-17T01:46:38.245Z,611.00
2023-05-17T01:47:38.300Z,609.00
2023-05-17T01:48:38.309Z,610.00
2023-05-17T01:49:38.233Z,611.00
2023-05-17T01:50:38.264Z,606.00
2023-05-17T01:51:38.305Z,605.00
2023-05-17T01:52:38.337Z,602.00
2023-05-17T01:53:38.358Z,605.00
2023-05-17T01:54:38.398Z,605.00
2023-05-17T01:55:38.415Z,608.00
2023-05-17T01:56:38.461Z,608.00
2023-05-17T01:57:38.481Z,609.00
2023-05-17T01:58:38.524Z,610.00
2023-05-17T01:59:38.529Z,610.00
2023-05-17T02:00:38.582Z,614.00
2023-05-17T02:01:38.701Z,614.00
2023-05-17T02:02:38.950Z,613.00
2023-05-17T02:03:38.682Z,614.00
2023-05-17T02:04:38.724Z,614.00
2023-05-17T02:05:38.728Z,613.00
2023-05-17T02:06:38.747Z,612.00
2023-05-17T02:07:38.779Z,611.00
2023-05-17T02:08:38.802Z,610.00
2023-05-17T02:09:38.837Z,608.00
2023-05-17T02:10:38.856Z,608.00
2023-05-17T02:11:38.895Z,608.00
2023-05-17T02:12:38.920Z,607.00
2023-05-17T02:13:38.954Z,606.00
2023-05-17T02:14:38.954Z,608.00
2023-05-17T02:15:39.009Z,608.00
2023-05-17T02:16:39.014Z,605.00
2023-05-17T02:17:39.139Z,602.00
2023-05-17T02:18:39.175Z,599.00
2023-05-17T02:19:39.123Z,601.00
2023-05-17T02:20:39.149Z,600.00
2023-05-17T02:21:39.165Z,601.00
2023-05-17T02:22:39.227Z,604.00
2023-05-17T02:23:39.237Z,600.00
2023-05-17T02:24:39.257Z,600.00
2023-05-17T02:25:39.301Z,604.00
2023-05-17T02:26:39.345Z,604.00
2023-05-17T02:27:39.370Z,603.00
2023-05-17T02:28:39.395Z,603.00
2023-05-17T02:29:39.439Z,602.00
2023-05-17T02:30:39.492Z,603.00
2023-05-17T02:31:39.498Z,604.00
2023-05-17T02:32:39.616Z,604.00
2023-05-17T02:33:39.742Z,604.00
2023-05-17T02:34:39.680Z,606.00
2023-05-17T02:35:39.626Z,603.00
2023-05-17T02:36:39.665Z,606.00
2023-05-17T02:37:39.689Z,607.00
2023-05-17T02:38:39.736Z,603.00
2023-05-17T02:39:39.763Z,601.00
2023-05-17T02:40:39.786Z,598.00
2023-05-17T02:41:39.824Z,596.00
2023-05-17T02:42:39.858Z,598.00
2023-05-17T02:43:39.886Z,600.00
2023-05-17T02:44:39.916Z,600.00
2023-05-17T02:45:40.011Z,601.00
2023-05-17T02:46:39.982Z,602.00
2023-05-17T02:47:40.079Z,601.00
2023-05-17T02:48:40.048Z,602.00
2023-05-17T02:49:40.079Z,598.00
2023-05-17T02:50:40.167Z,598.00
2023-05-17T02:51:40.147Z,598.00
2023-05-17T02:52:40.166Z,598.00
2023-05-17T02:53:40.200Z,597.00
2023-05-17T02:54:40.233Z,596.00
2023-05-17T02:55:40.262Z,596.00
2023-05-17T02:56:40.272Z,595.00
2023-05-17T02:57:40.303Z,594.00
2023-05-17T02:58:40.318Z,594.00
2023-05-17T02:59:40.348Z,593.00
2023-05-17T03:00:40.404Z,594.00
2023-05-17T03:01:40.417Z,594.00
2023-05-17T03:02:40.509Z,594.00
2023-05-17T03:03:40.642Z,597.00
2023-05-17T03:04:40.604Z,598.00
2023-05-17T03:05:40.527Z,599.00
2023-05-17T03:06:41.122Z,597.00
2023-05-17T03:07:40.600Z,597.00
2023-05-17T03:08:40.620Z,596.00
2023-05-17T03:09:40.656Z,596.00
2023-05-17T03:10:40.702Z,595.00
2023-05-17T03:11:40.732Z,595.00
2023-05-17T03:12:40.776Z,596.00
2023-05-17T03:13:40.778Z,596.00
2023-05-17T03:14:40.820Z,596.00
2023-05-17T03:15:40.857Z,596.00
2023-05-17T03:16:40.914Z,595.00
2023-05-17T03:17:40.971Z,595.00
2023-05-17T03:18:41.075Z,592.00
2023-05-17T03:19:41.028Z,591.00
2023-05-17T03:20:41.019Z,591.00
2023-05-17T03:21:41.049Z,590.00
2023-05-17T03:22:41.193Z,591.00
2023-05-17T03:23:41.112Z,594.00
2023-05-17T03:24:41.133Z,589.00
2023-05-17T03:25:41.190Z,591.00
2023-05-17T03:26:41.989Z,590.00
2023-05-17T03:27:41.248Z,587.00
2023-05-17T03:28:41.248Z,587.00
2023-05-17T03:29:41.305Z,587.00
2023-05-17T03:30:41.363Z,589.00
2023-05-17T03:31:41.375Z,591.00
2023-05-17T03:32:41.539Z,593.00
2023-05-17T03:33:41.485Z,591.00
2023-05-17T03:34:41.467Z,591.00
2023-05-17T03:35:41.503Z,594.00
2023-05-17T03:36:41.540Z,593.00
2023-05-17T03:37:41.594Z,592.00
2023-05-17T03:38:41.677Z,591.00
2023-05-17T03:39:41.624Z,591.00
2023-05-17T03:40:41.663Z,594.00
2023-05-17T03:41:41.695Z,593.00
2023-05-17T03:42:41.740Z,594.00
2023-05-17T03:43:41.777Z,595.00
2023-05-17T03:44:41.790Z,595.00
2023-05-17T03:45:41.836Z,595.00
2023-05-17T03:46:41.876Z,595.00
2023-05-17T03:47:41.957Z,594.00
2023-05-17T03:48:41.992Z,591.00
2023-05-17T03:49:41.950Z,591.00
2023-05-17T03:50:42.009Z,590.00
2023-05-17T03:51:42.033Z,589.00
2023-05-17T03:52:42.206Z,591.00
2023-05-17T03:53:42.087Z,591.00
2023-05-17T03:54:42.192Z,591.00
2023-05-17T03:55:42.167Z,590.00
2023-05-17T03:56:42.178Z,588.00
2023-05-17T03:57:42.211Z,587.00
2023-05-17T03:58:42.244Z,584.00
2023-05-17T03:59:42.275Z,584.00
2023-05-17T04:00:42.316Z,581.00
2023-05-17T04:01:42.393Z,580.00
2023-05-17T04:02:42.416Z,582.00
2023-05-17T04:03:42.499Z,584.00
2023-05-17T04:04:42.461Z,585.00
2023-05-17T04:05:42.480Z,583.00
2023-05-17T04:06:42.494Z,584.00
2023-05-17T04:07:42.519Z,585.00
2023-05-17T04:08:42.544Z,586.00
2023-05-17T04:09:42.586Z,585.00
2023-05-17T04:10:42.710Z,587.00
2023-05-17T04:11:42.647Z,586.00
2023-05-17T04:12:42.699Z,584.00
2023-05-17T04:13:42.724Z,582.00
2023-05-17T04:14:42.760Z,581.00
2023-05-17T04:15:42.802Z,580.00
2023-05-17T04:16:42.831Z,581.00
2023-05-17T04:17:42.908Z,581.00
2023-05-17T04:18:43.094Z,583.00
2023-05-17T04:19:42.986Z,585.00
2023-05-17T04:20:42.974Z,584.00
2023-05-17T04:21:43.061Z,582.00
2023-05-17T04:22:43.044Z,585.00
2023-05-17T04:23:43.080Z,583.00
2023-05-17T04:24:43.111Z,582.00
2023-05-17T04:25:43.152Z,581.00
2023-05-17T04:26:43.258Z,580.00
2023-05-17T04:27:43.252Z,577.00
2023-05-17T04:28:43.247Z,579.00
2023-05-17T04:29:43.315Z,580.00
2023-05-17T04:30:43.338Z,581.00
2023-05-17T04:31:43.377Z,577.00
2023-05-17T04:32:43.518Z,574.00
2023-05-17T04:33:43.482Z,573.00
2023-05-17T04:34:43.466Z,574.00
2023-05-17T04:35:43.511Z,577.00
2023-05-17T04:36:43.531Z,577.00
2023-05-17T04:37:43.578Z,577.00
2023-05-17T04:38:43.614Z,574.00
2023-05-17T04:39:43.661Z,573.00
2023-05-17T04:40:43.686Z,574.00
2023-05-17T04:41:43.721Z,574.00
2023-05-17T04:42:43.853Z,576.00
2023-05-17T04:43:43.806Z,577.00
2023-05-17T04:44:43.841Z,578.00
2023-05-17T04:45:43.899Z,577.00
2023-05-17T04:46:43.938Z,575.00
2023-05-17T04:47:44.008Z,574.00
2023-05-17T04:48:44.047Z,573.00
2023-05-17T04:49:43.991Z,573.00
2023-05-17T04:50:44.047Z,571.00
2023-05-17T04:51:44.082Z,571.00
2023-05-17T04:52:44.142Z,570.00
2023-05-17T04:53:44.150Z,571.00
2023-05-17T04:54:44.193Z,571.00
2023-05-17T04:55:44.232Z,570.00
2023-05-17T04:56:44.260Z,569.00
2023-05-17T04:57:44.293Z,569.00
2023-05-17T04:58:44.432Z,570.00
2023-05-17T04:59:44.372Z,572.00
2023-05-17T05:00:44.402Z,573.00
2023-05-17T05:01:44.437Z,575.00
2023-05-17T05:02:44.523Z,576.00
2023-05-17T05:03:44.599Z,574.00
2023-05-17T05:04:44.668Z,577.00
2023-05-17T05:05:44.594Z,575.00
2023-05-17T05:06:44.630Z,575.00
2023-05-17T05:07:44.667Z,576.00
2023-05-17T05:08:44.694Z,576.00
2023-05-17T05:09:44.761Z,573.00
2023-05-17T05:10:44.765Z,573.00
2023-05-17T05:11:44.842Z,576.00
2023-05-17T05:12:44.906Z,577.00
2023-05-17T05:13:44.901Z,578.00
2023-05-17T05:14:44.969Z,576.00
2023-05-17T05:15:44.963Z,573.00
2023-05-17T05:16:44.975Z,571.00
2023-05-17T05:17:45.069Z,613.00
2023-05-17T05:18:45.168Z,594.00
2023-05-17T05:19:45.160Z,582.00
2023-05-17T05:20:45.110Z,580.00
2023-05-17T05:21:45.143Z,581.00
2023-05-17T05:22:45.188Z,619.00
2023-05-17T05:23:45.247Z,616.00
2023-05-17T05:24:45.271Z,691.00
2023-05-17T05:25:45.400Z,693.00
2023-05-17T05:26:45.340Z,706.00
2023-05-17T05:27:45.386Z,688.00
2023-05-17T05:28:45.403Z,1206.00
2023-05-17T05:29:45.423Z,734.00
2023-05-17T05:30:45.667Z,733.00
2023-05-17T05:31:45.535Z,749.00
2023-05-17T05:32:45.598Z,782.00
2023-05-17T05:33:45.625Z,825.00
2023-05-17T05:34:45.610Z,839.00
2023-05-17T05:35:45.542Z,908.00
2023-05-17T05:36:45.580Z,932.00
2023-05-17T05:37:45.576Z,971.00
2023-05-17T05:38:45.729Z,1040.00
2023-05-17T05:39:45.726Z,1038.00
2023-05-17T05:40:45.703Z,1056.00
2023-05-17T05:41:45.776Z,1070.00
2023-05-17T05:42:45.981Z,1119.00
2023-05-17T05:43:45.621Z,1163.00
2023-05-17T05:44:45.594Z,1193.00
2023-05-17T05:45:45.612Z,1207.00
2023-05-17T05:46:45.604Z,1262.00
2023-05-17T05:47:45.772Z,1307.00
2023-05-17T05:48:45.671Z,1303.00
2023-05-17T05:49:45.644Z,1296.00
2023-05-17T05:50:45.635Z,1316.00
2023-05-17T05:51:46.672Z,1385.00
2023-05-17T05:52:45.655Z,1416.00
2023-05-17T05:53:45.656Z,1418.00
2023-05-17T05:54:45.650Z,1499.00
2023-05-17T05:55:45.680Z,1522.00
2023-05-17T05:56:45.678Z,1520.00
2023-05-17T05:57:45.922Z,1534.00
2023-05-17T05:58:45.916Z,1545.00
2023-05-17T05:59:46.553Z,1549.00
2023-05-17T06:00:45.962Z,1573.00
2023-05-17T06:01:45.888Z,1675.00
2023-05-17T06:02:46.327Z,1695.00
2023-05-17T06:03:45.915Z,1636.00
2023-05-17T06:04:46.182Z,1644.00
2023-05-17T06:05:46.069Z,1753.00
2023-05-17T06:06:46.142Z,1761.00
2023-05-17T06:07:46.063Z,1775.00
2023-05-17T06:08:46.081Z,1768.00
2023-05-17T06:09:47.145Z,1773.00
2023-05-17T06:10:46.307Z,1786.00
2023-05-17T06:11:46.179Z,1824.00
2023-05-17T06:12:46.212Z,1829.00
2023-05-17T06:13:46.260Z,1928.00
2023-05-17T06:14:46.268Z,1975.00
2023-05-17T06:15:46.970Z,1987.00
2023-05-17T06:16:46.323Z,1996.00
2023-05-17T06:17:46.607Z,2008.00
2023-05-17T06:18:47.918Z,2037.00
2023-05-17T06:19:46.427Z,2071.00
2023-05-17T06:20:46.339Z,2066.00
2023-05-17T06:21:46.325Z,2065.00
2023-05-17T06:22:46.282Z,2012.00
2023-05-17T06:23:46.291Z,2082.00
2023-05-17T06:24:46.232Z,2091.00
2023-05-17T06:25:46.258Z,1922.00
2023-05-17T06:26:46.294Z,1910.00
2023-05-17T06:27:46.197Z,1898.00
2023-05-17T06:28:46.160Z,1917.00
2023-05-17T06:29:46.500Z,1948.00
2023-05-17T06:30:46.128Z,2085.00
2023-05-17T06:31:46.122Z,2104.00
2023-05-17T06:32:46.086Z,2197.00
2023-05-17T06:33:46.410Z,2534.00
2023-05-17T06:34:46.098Z,2285.00
2023-05-17T06:35:56.053Z,2269.00
2023-05-17T06:36:46.988Z,2294.00
2023-05-17T06:37:46.083Z,2343.00
2023-05-17T06:38:45.933Z,2359.00
2023-05-17T06:39:55.827Z,2412.00
2023-05-17T06:40:46.900Z,2409.00
2023-05-17T06:41:46.556Z,2479.00
2023-05-17T06:42:45.845Z,2480.00
2023-05-17T06:43:45.829Z,2485.00
2023-05-17T06:44:45.804Z,2614.00
2023-05-17T06:45:45.772Z,2625.00
2023-05-17T06:46:45.765Z,2620.00
2023-05-17T06:47:45.791Z,2615.00
2023-05-17T06:48:46.839Z,2648.00
2023-05-17T06:49:45.802Z,2652.00
2023-05-17T06:50:45.704Z,2741.00
2023-05-17T06:51:45.622Z,2740.00
2023-05-17T06:52:45.639Z,2769.00
2023-05-17T06:53:45.642Z,2777.00
2023-05-17T06:54:45.762Z,2748.00
2023-05-17T06:55:45.625Z,2748.00
2023-05-17T06:56:45.620Z,2766.00
2023-05-17T06:57:46.595Z,2800.00
2023-05-17T06:58:45.563Z,2841.00
2023-05-17T06:59:45.514Z,2972.00
2023-05-17T07:00:45.714Z,2962.00
2023-05-17T07:01:45.524Z,2984.00
2023-05-17T07:02:45.568Z,2996.00
2023-05-17T07:03:45.440Z,2973.00
2023-05-17T07:04:45.412Z,2997.00
2023-05-17T07:05:46.274Z,3011.00
2023-05-17T07:06:45.374Z,3043.00
2023-05-17T07:07:45.296Z,3081.00
2023-05-17T07:08:45.277Z,3070.00
2023-05-17T07:09:45.221Z,3157.00
2023-05-17T07:10:45.206Z,3131.00
2023-05-17T07:11:45.156Z,3178.00
2023-05-17T07:12:45.157Z,3309.00
2023-05-17T07:13:46.540Z,3428.00
2023-05-17T07:14:45.285Z,3271.00
2023-05-17T07:15:45.120Z,3389.00
2023-05-17T07:16:45.100Z,3405.00
2023-05-17T07:17:45.119Z,3480.00
2023-05-17T07:18:45.195Z,3140.00
2023-05-17T07:19:46.180Z,3223.00
2023-05-17T07:20:45.025Z,2774.00
2023-05-17T07:21:45.007Z,2192.00
2023-05-17T07:22:45.076Z,2055.00
2023-05-17T07:23:45.112Z,1813.00
2023-05-17T07:24:44.921Z,1632.00
2023-05-17T07:25:44.887Z,1499.00
2023-05-17T07:26:44.863Z,1454.00
2023-05-17T07:27:44.847Z,1313.00
2023-05-17T07:28:44.828Z,1261.00
2023-05-17T07:29:44.839Z,1210.00
2023-05-17T07:30:44.803Z,1121.00
2023-05-17T07:31:44.786Z,1087.00
2023-05-17T07:32:44.825Z,1076.00
2023-05-17T07:33:44.806Z,972.00
2023-05-17T07:34:45.330Z,943.00
2023-05-17T07:35:44.770Z,939.00
2023-05-17T07:36:44.897Z,925.00
2023-05-17T07:37:44.808Z,924.00
2023-05-17T07:38:45.114Z,947.00
2023-05-17T07:39:44.878Z,995.00
2023-05-17T07:40:44.822Z,1017.00
2023-05-17T07:41:44.832Z,1031.00
2023-05-17T07:42:44.911Z,1052.00
2023-05-17T07:43:44.922Z,1086.00
2023-05-17T07:44:44.959Z,1174.00
2023-05-17T07:45:44.959Z,1180.00
2023-05-17T07:46:45.013Z,1279.00
2023-05-17T07:47:45.104Z,1292.00
2023-05-17T07:48:45.088Z,1321.00
2023-05-17T07:49:45.049Z,1401.00
2023-05-17T07:50:45.052Z,1401.00
2023-05-17T07:51:45.111Z,1403.00
2023-05-17T07:52:45.072Z,1480.00
2023-05-17T07:53:45.074Z,1553.00
2023-05-17T07:54:45.153Z,1519.00
2023-05-17T07:55:47.592Z,1528.00
2023-05-17T07:56:45.202Z,1566.00
2023-05-17T07:57:45.221Z,1590.00
2023-05-17T07:58:45.235Z,1667.00
2023-05-17T07:59:45.218Z,1667.00
2023-05-17T08:00:45.326Z,1672.00
2023-05-17T08:01:45.204Z,1679.00
2023-05-17T08:02:45.187Z,1730.00
2023-05-17T08:03:45.183Z,1763.00
2023-05-17T08:04:45.198Z,1790.00
2023-05-17T08:05:45.194Z,1802.00
2023-05-17T08:06:45.157Z,1819.00
2023-05-17T08:07:45.161Z,1829.00
2023-05-17T08:08:45.142Z,1873.00
2023-05-17T08:09:45.143Z,1892.00
2023-05-17T08:10:45.101Z,1969.00
2023-05-17T08:11:45.100Z,1967.00
2023-05-17T08:12:45.115Z,1973.00
2023-05-17T08:13:45.078Z,1985.00
2023-05-17T08:14:45.071Z,1916.00
2023-05-17T08:15:45.059Z,1757.00
2023-05-17T08:16:45.063Z,1576.00
2023-05-17T08:17:45.145Z,1539.00
2023-05-17T08:18:45.237Z,1464.00
2023-05-17T08:19:45.193Z,1458.00
2023-05-17T08:20:45.119Z,1434.00
2023-05-17T08:21:45.148Z,1468.00
2023-05-17T08:22:45.164Z,1666.00
2023-05-17T08:23:45.158Z,1752.00
2023-05-17T08:24:45.188Z,1758.00
2023-05-17T08:25:45.197Z,1756.00
2023-05-17T08:26:45.239Z,1897.00
2023-05-17T08:27:45.238Z,2005.00
2023-05-17T08:28:45.248Z,1552.00
2023-05-17T08:29:45.304Z,1720.00
2023-05-17T08:30:45.242Z,1766.00
2023-05-17T08:31:45.248Z,1836.00
2023-05-17T08:32:45.358Z,1849.00
2023-05-17T08:33:45.310Z,1908.00
2023-05-17T08:34:45.261Z,2012.00
2023-05-17T08:35:45.252Z,2027.00
2023-05-17T08:36:45.290Z,2042.00
2023-05-17T08:37:45.243Z,2080.00
2023-05-17T08:38:45.247Z,2149.00
2023-05-17T08:39:45.349Z,2193.00
2023-05-17T08:40:45.212Z,2205.00
2023-05-17T08:41:45.197Z,2206.00
2023-05-17T08:42:45.237Z,2218.00
2023-05-17T08:43:45.189Z,2229.00
2023-05-17T08:44:45.181Z,2240.00
2023-05-17T08:45:45.193Z,2331.00
2023-05-17T08:46:45.214Z,2348.00
2023-05-17T08:47:45.234Z,2374.00
2023-05-17T08:48:45.295Z,2404.00
2023-05-17T08:49:47.001Z,2406.00
2023-05-17T08:50:45.190Z,2429.00
2023-05-17T08:51:45.238Z,2442.00
2023-05-17T08:52:45.162Z,2455.00
2023-05-17T08:53:45.137Z,2477.00
2023-05-17T08:54:45.137Z,2496.00
2023-05-17T08:55:45.085Z,2539.00
2023-05-17T08:56:45.044Z,2570.00
2023-05-17T08:57:45.044Z,2581.00
2023-05-17T08:59:45.997Z,2621.00
2023-05-17T09:00:44.947Z,2634.00
2023-05-17T09:01:44.945Z,2637.00
2023-05-17T09:02:45.018Z,2648.00
2023-05-17T09:03:45.163Z,2669.00
2023-05-17T09:04:44.934Z,2712.00
2023-05-17T09:05:44.858Z,2810.00
2023-05-17T09:06:44.818Z,2830.00
2023-05-17T09:07:44.798Z,2838.00
2023-05-17T09:08:44.750Z,2843.00
2023-05-17T09:09:44.756Z,2849.00
2023-05-17T09:10:44.800Z,2872.00
2023-05-17T09:11:44.784Z,2910.00
2023-05-17T09:12:44.760Z,2929.00
2023-05-17T09:13:44.772Z,2966.00
2023-05-17T09:14:44.763Z,3006.00
2023-05-17T09:15:44.764Z,3050.00
2023-05-17T09:16:44.775Z,3069.00
2023-05-17T09:17:44.840Z,3095.00
2023-05-17T09:18:44.944Z,3054.00
2023-05-17T09:19:45.109Z,3027.00
2023-05-17T09:20:44.800Z,3079.00
2023-05-17T09:21:44.782Z,3081.00
2023-05-17T09:22:44.792Z,3030.00
2023-05-17T09:23:51.490Z,3029.00
2023-05-17T09:24:45.731Z,3030.00
2023-05-17T09:25:45.543Z,3022.00
2023-05-17T09:26:44.746Z,2999.00
2023-05-17T09:27:44.694Z,2984.00
2023-05-17T09:28:44.710Z,2981.00
2023-05-17T09:29:44.682Z,2970.00
2023-05-17T09:30:44.682Z,2966.00
2023-05-17T09:31:44.783Z,2954.00
2023-05-17T09:32:44.729Z,2946.00
2023-05-17T09:33:44.743Z,2932.00
2023-05-17T09:34:45.758Z,2921.00
2023-05-17T09:35:44.627Z,2903.00
2023-05-17T09:36:44.627Z,2890.00
2023-05-17T09:37:44.547Z,2891.00
2023-05-17T09:38:44.537Z,2871.00
2023-05-17T09:39:44.499Z,2869.00
2023-05-17T09:40:44.501Z,2858.00
2023-05-17T09:41:44.439Z,2843.00
2023-05-17T09:42:44.417Z,2843.00
2023-05-17T09:43:44.605Z,2838.00
2023-05-17T09:44:44.349Z,2827.00
2023-05-17T09:45:44.339Z,2788.00
2023-05-17T09:46:44.327Z,2782.00
2023-05-17T09:47:44.356Z,2797.00
2023-05-17T09:48:45.203Z,2801.00
2023-05-17T09:49:44.288Z,2786.00
2023-05-17T09:50:44.284Z,2763.00
2023-05-17T09:51:44.342Z,2756.00
2023-05-17T09:52:44.316Z,2756.00
2023-05-17T09:53:44.344Z,2753.00
2023-05-17T09:54:44.379Z,2745.00
2023-05-17T09:55:44.372Z,2745.00
2023-05-17T09:56:44.382Z,2694.00
2023-05-17T09:57:44.389Z,2711.00
2023-05-17T09:58:44.394Z,2699.00
2023-05-17T09:59:44.424Z,2687.00
2023-05-17T10:00:44.398Z,2676.00
2023-05-17T10:01:44.453Z,2682.00
2023-05-17T10:02:44.580Z,2681.00
2023-05-17T10:03:44.554Z,2685.00
2023-05-17T10:04:44.516Z,2687.00
2023-05-17T10:05:44.547Z,2652.00
2023-05-17T10:06:48.539Z,2646.00
2023-05-17T10:07:45.522Z,2657.00
2023-05-17T10:08:44.486Z,2664.00
2023-05-17T10:09:44.470Z,2664.00
2023-05-17T10:10:44.442Z,2658.00
2023-05-17T10:11:44.428Z,2653.00
2023-05-17T10:12:44.396Z,2665.00
2023-05-17T10:13:44.386Z,2656.00
2023-05-17T10:14:45.395Z,2629.00
2023-05-17T10:15:44.332Z,2621.00
2023-05-17T10:16:44.323Z,2617.00
2023-05-17T10:17:45.723Z,2604.00
2023-05-17T10:18:44.365Z,2579.00
2023-05-17T10:19:44.446Z,2582.00
2023-05-17T10:20:44.235Z,2569.00
2023-05-17T10:21:44.213Z,2557.00
2023-05-17T10:22:44.206Z,2551.00
2023-05-17T10:23:44.185Z,2547.00
2023-05-17T10:24:45.083Z,2550.00
2023-05-17T10:25:44.225Z,2544.00
2023-05-17T10:26:44.257Z,2530.00
2023-05-17T10:27:44.301Z,2524.00
2023-05-17T10:28:44.336Z,2518.00
2023-05-17T10:29:44.474Z,2518.00
2023-05-17T10:30:44.392Z,2514.00
2023-05-17T10:31:44.469Z,2513.00
2023-05-17T10:32:44.541Z,2496.00
2023-05-17T10:33:44.621Z,2453.00
2023-05-17T10:34:47.496Z,2467.00
2023-05-17T10:35:45.519Z,2478.00
2023-05-17T10:36:44.538Z,2480.00
2023-05-17T10:37:44.487Z,2466.00
2023-05-17T10:38:44.448Z,2464.00
2023-05-17T10:39:44.434Z,2450.00
2023-05-17T10:40:44.442Z,2438.00
2023-05-17T10:41:44.393Z,2423.00
2023-05-17T10:42:44.407Z,2421.00
2023-05-17T10:43:44.367Z,2412.00
2023-05-17T10:44:44.366Z,2419.00
2023-05-17T10:45:44.387Z,2418.00
2023-05-17T10:46:44.467Z,2408.00
2023-05-17T10:47:44.508Z,2401.00
2023-05-17T10:48:44.541Z,2388.00
2023-05-17T10:49:44.541Z,2385.00
2023-05-17T10:50:54.491Z,2371.00
2023-05-17T10:51:45.576Z,2359.00
2023-05-17T10:52:44.539Z,2352.00
2023-05-17T10:53:44.503Z,2351.00
2023-05-17T10:54:44.507Z,2344.00
2023-05-17T10:55:44.480Z,2334.00
2023-05-17T10:56:44.465Z,2331.00
2023-05-17T10:57:50.493Z,2326.00
2023-05-17T10:58:45.432Z,2319.00
2023-05-17T10:59:44.413Z,2309.00
2023-05-17T11:00:44.475Z,2307.00
2023-05-17T11:01:45.250Z,2298.00
2023-05-17T11:02:44.451Z,2291.00
2023-05-17T11:03:44.404Z,2290.00
2023-05-17T11:04:44.397Z,2293.00
2023-05-17T11:05:44.392Z,2291.00
2023-05-17T11:06:44.539Z,2293.00
2023-05-17T11:07:44.308Z,2293.00
2023-05-17T11:08:44.339Z,2291.00
2023-05-17T11:09:44.364Z,2289.00
2023-05-17T11:10:44.382Z,2286.00
2023-05-17T11:11:44.408Z,2289.00
2023-05-17T11:12:44.431Z,2287.00
2023-05-17T11:13:44.417Z,2280.00
2023-05-17T11:14:44.420Z,2271.00
2023-05-17T11:15:44.438Z,2263.00
2023-05-17T11:16:44.460Z,2258.00
2023-05-17T11:17:44.571Z,2250.00
2023-05-17T11:18:44.615Z,2254.00
2023-05-17T11:19:44.550Z,2250.00
2023-05-17T11:20:44.564Z,2241.00
2023-05-17T11:21:44.548Z,2240.00
2023-05-17T11:22:44.555Z,2234.00
2023-05-17T11:23:44.588Z,2235.00
2023-05-17T11:24:44.566Z,2235.00
2023-05-17T11:25:44.584Z,2227.00
2023-05-17T11:26:44.607Z,2221.00
2023-05-17T11:27:44.613Z,2207.00
2023-05-17T11:28:44.625Z,2205.00
2023-05-17T11:29:44.658Z,2200.00
2023-05-17T11:30:44.672Z,2203.00
2023-05-17T11:31:44.662Z,2199.00
2023-05-17T11:32:44.709Z,2193.00
2023-05-17T11:33:44.823Z,2187.00
2023-05-17T11:34:44.706Z,2183.00
2023-05-17T11:35:44.762Z,2182.00
2023-05-17T11:36:44.735Z,2178.00
2023-05-17T11:37:44.754Z,2180.00
2023-05-17T11:38:45.455Z,2177.00
2023-05-17T11:39:44.782Z,2172.00
2023-05-17T11:40:44.824Z,2168.00
2023-05-17T11:41:44.832Z,2166.00
2023-05-17T11:42:44.863Z,2162.00
2023-05-17T11:43:44.869Z,2157.00
2023-05-17T11:44:44.943Z,2158.00
2023-05-17T11:45:44.889Z,2158.00
2023-05-17T11:46:44.903Z,2155.00
2023-05-17T11:47:44.971Z,2128.00
2023-05-17T11:48:44.929Z,2125.00
2023-05-17T11:49:44.879Z,2123.00
2023-05-17T11:50:44.898Z,2115.00
2023-05-17T11:51:44.929Z,2115.00
2023-05-17T11:52:44.946Z,2119.00
2023-05-17T11:53:44.967Z,2114.00
2023-05-17T11:54:45.006Z,2115.00
2023-05-17T11:55:44.989Z,2112.00
2023-05-17T11:56:44.978Z,2118.00
2023-05-17T11:57:44.983Z,2111.00
2023-05-17T11:58:44.984Z,2110.00
2023-05-17T11:59:44.989Z,2108.00
2023-05-17T12:00:44.985Z,2101.00
2023-05-17T12:01:44.995Z,2095.00
2023-05-17T12:02:45.054Z,2083.00
2023-05-17T12:03:45.006Z,2080.00
2023-05-17T12:04:45.034Z,2074.00
2023-05-17T12:05:45.002Z,2070.00
2023-05-17T12:06:45.132Z,2068.00
2023-05-17T12:07:45.004Z,2063.00
2023-05-17T12:08:45.020Z,2058.00
2023-05-17T12:09:45.000Z,2056.00
2023-05-17T12:10:45.021Z,2053.00
2023-05-17T12:11:45.003Z,2051.00
2023-05-17T12:12:45.085Z,2051.00
2023-05-17T12:13:45.004Z,2048.00
2023-05-17T12:14:45.015Z,2034.00
2023-05-17T12:15:45.013Z,2032.00
2023-05-17T12:16:45.024Z,2025.00
2023-05-17T12:17:45.128Z,2020.00